History for KNYNEWYO805

Frying Pan NYC, New York, NY — Current Conditions
Daily Summary for January 21, 2018
  Current: High: Low: Average:
Temperature: 43.3°F 49.1°F 35.8°F 42.4°F
Dew Point: 36.0°F 36.5°F 29.5°F 33.1°F
Humidity: 75% 79% 58% 71%
Wind Speed: - 4.3mph - 0.3mph
Wind Gust: - 4.3mph - -
Wind: North - - SSE
Pressure: 29.51in 29.54in 29.39in -
Precipitation: 0.00in      
Statistics for the rest of the month
    High: Low: Average:
Temperature:   59.5°F -38.2°F 25.0°F
Dew Point:   59.2°F -3.8°F 19.8°F
Humidity:   99.0% 39.0% 75.2%
Wind Speed:   24.2mph from the SW - 3.9mph
Wind Gust:   24.2mph from the SW - -
Wind:   - - SSE
Pressure:   30.68in 28.63in -
Precipitation:   0.21in    
KNYNEWYO805 Weather Graph
Tabular Data for January 21, 2018
Time Temp. Windchill Dew Point Pressure Wind Gust Humidity Rainfall Solar Radiation
00:03 38.8°F - 30.9°F 29.39in - 73% 0.00in -9999 watts/m^2
00:08 38.7°F - 31.1°F 29.39in - 74% 0.00in -9999 watts/m^2
00:13 38.8°F - 31.3°F 29.39in - 74% 0.00in -9999 watts/m^2
00:18 38.8°F - 31.3°F 29.39in - 74% 0.00in -9999 watts/m^2
00:23 38.7°F - 31.1°F 29.39in - 74% 0.00in -9999 watts/m^2
00:28 38.7°F - 31.1°F 29.39in - 74% 0.00in -9999 watts/m^2
00:33 38.7°F - 31.1°F 29.39in - 74% 0.00in -9999 watts/m^2
00:38 38.8°F - 31.3°F 29.39in - 74% 0.00in -9999 watts/m^2
00:48 38.7°F - 31.1°F 29.39in - 74% 0.00in -9999 watts/m^2
00:53 38.5°F - 30.9°F 29.39in - 74% 0.00in -9999 watts/m^2
00:58 38.5°F - 30.9°F 29.39in - 74% 0.00in -9999 watts/m^2
01:03 38.3°F - 30.7°F 29.40in - 74% 0.00in -9999 watts/m^2
01:18 37.9°F - 30.4°F 29.40in - 74% 0.00in -9999 watts/m^2
01:38 38.5°F - 30.6°F 29.41in - 73% 0.00in -9999 watts/m^2
01:43 38.1°F - 30.2°F 29.40in - 73% 0.00in -9999 watts/m^2
01:48 37.9°F - 30.4°F 29.41in - 74% 0.00in -9999 watts/m^2
01:58 37.6°F - 30.0°F 29.42in - 74% 0.00in -9999 watts/m^2
02:03 37.6°F - 30.4°F 29.42in - 75% 0.00in -9999 watts/m^2
02:08 37.4°F - 30.2°F 29.42in - 75% 0.00in -9999 watts/m^2
02:13 37.2°F - 30.0°F 29.42in - 75% 0.00in -9999 watts/m^2
02:18 37.2°F - 30.0°F 29.42in - 75% 0.00in -9999 watts/m^2
02:23 37.4°F - 30.2°F 29.42in - 75% 0.00in -9999 watts/m^2
02:28 37.6°F - 30.7°F 29.42in - 76% 0.00in -9999 watts/m^2
02:33 37.6°F - 30.7°F 29.43in - 76% 0.00in -9999 watts/m^2
02:48 37.2°F - 30.0°F 29.42in - 75% 0.00in -9999 watts/m^2
02:58 37.0°F - 30.2°F 29.42in - 76% 0.00in -9999 watts/m^2
03:03 37.0°F - 29.8°F 29.42in - 75% 0.00in -9999 watts/m^2
03:13 36.9°F - 30.0°F 29.42in - 76% 0.00in -9999 watts/m^2
03:18 36.9°F - 30.0°F 29.42in - 76% 0.00in -9999 watts/m^2
03:23 36.7°F - 29.5°F 29.42in - 75% 0.00in -9999 watts/m^2
03:33 36.9°F - 30.0°F 29.42in - 76% 0.00in -9999 watts/m^2
03:38 36.9°F - 30.0°F 29.43in - 76% 0.00in -9999 watts/m^2
03:43 36.9°F - 30.4°F 29.43in - 77% 0.00in -9999 watts/m^2
03:48 37.0°F - 30.2°F 29.43in - 76% 0.00in -9999 watts/m^2
03:53 37.0°F - 30.2°F 29.42in - 76% 0.00in -9999 watts/m^2
03:58 36.9°F - 30.0°F 29.43in - 76% 0.00in -9999 watts/m^2
04:03 36.7°F - 29.8°F 29.43in - 76% 0.00in -9999 watts/m^2
04:08 36.9°F - 30.0°F 29.43in - 76% 0.00in -9999 watts/m^2
04:14 36.9°F - 30.0°F 29.43in - 76% 0.00in -9999 watts/m^2
04:19 36.9°F - 30.4°F 29.43in - 77% 0.00in -9999 watts/m^2
04:24 37.0°F - 30.7°F 29.44in - 78% 0.00in -9999 watts/m^2
04:29 37.0°F - 30.6°F 29.44in - 77% 0.00in -9999 watts/m^2
04:34 37.4°F - 30.9°F 29.44in - 77% 0.00in -9999 watts/m^2
04:39 37.2°F - 30.7°F 29.44in - 77% 0.00in -9999 watts/m^2
04:44 37.2°F - 30.4°F 29.44in - 76% 0.00in -9999 watts/m^2
04:49 37.0°F - 30.2°F 29.44in - 76% 0.00in -9999 watts/m^2
04:54 37.0°F - 30.2°F 29.45in - 76% 0.00in -9999 watts/m^2
04:59 37.0°F - 30.2°F 29.45in - 76% 0.00in -9999 watts/m^2
05:04 36.9°F - 30.0°F 29.45in - 76% 0.00in -9999 watts/m^2
05:09 36.9°F - 30.0°F 29.45in - 76% 0.00in -9999 watts/m^2
05:14 36.9°F - 30.0°F 29.45in - 76% 0.00in -9999 watts/m^2
05:19 36.7°F - 29.8°F 29.45in - 76% 0.00in -9999 watts/m^2
05:24 36.5°F - 29.7°F 29.45in 0.0mph 76% 0.00in -9999 watts/m^2
05:29 36.5°F - 29.7°F 29.46in 0.0mph 76% 0.00in -9999 watts/m^2
05:34 36.5°F - 30.0°F 29.46in 0.0mph 77% 0.00in -9999 watts/m^2
05:39 36.5°F - 30.0°F 29.46in 0.0mph 77% 0.00in -9999 watts/m^2
05:44 36.5°F - 30.0°F 29.46in 0.0mph 77% 0.00in -9999 watts/m^2
05:49 36.3°F - 29.8°F 29.46in 0.0mph 77% 0.00in -9999 watts/m^2
05:54 36.5°F - 30.0°F 29.47in - 77% 0.00in -9999 watts/m^2
05:59 36.3°F - 29.8°F 29.47in - 77% 0.00in -9999 watts/m^2
06:04 36.1°F - 29.7°F 29.47in - 77% 0.00in -9999 watts/m^2
06:09 36.0°F - 29.5°F 29.47in - 77% 0.00in -9999 watts/m^2
06:14 36.0°F - 29.7°F 29.47in - 78% 0.00in -9999 watts/m^2
06:19 36.0°F - 29.7°F 29.47in - 78% 0.00in -9999 watts/m^2
06:24 36.0°F - 29.7°F 29.48in - 78% 0.00in -9999 watts/m^2
06:29 36.3°F - 30.0°F 29.48in - 78% 0.00in -9999 watts/m^2
06:34 36.5°F - 30.2°F 29.48in - 78% 0.00in -9999 watts/m^2
06:39 36.5°F - 30.2°F 29.48in - 78% 0.00in -9999 watts/m^2
06:44 36.1°F - 29.8°F 29.49in - 78% 0.00in -9999 watts/m^2
06:49 36.1°F - 29.8°F 29.49in - 78% 0.00in -9999 watts/m^2
06:54 36.1°F - 29.8°F 29.48in - 78% 0.00in -9999 watts/m^2
06:59 36.0°F - 29.7°F 29.49in - 78% 0.00in -9999 watts/m^2
07:04 35.8°F - 29.5°F 29.49in - 78% 0.00in -9999 watts/m^2
07:09 35.8°F - 29.5°F 29.49in - 78% 0.00in -9999 watts/m^2
07:14 35.8°F - 29.5°F 29.50in - 78% 0.00in -9999 watts/m^2
07:19 35.8°F - 29.8°F 29.50in - 79% 0.00in -9999 watts/m^2
07:24 35.8°F - 29.8°F 29.50in - 79% 0.00in -9999 watts/m^2
07:29 35.8°F - 29.8°F 29.50in - 79% 0.00in -9999 watts/m^2
07:34 36.0°F - 30.0°F 29.50in - 79% 0.00in -9999 watts/m^2
07:39 36.0°F - 30.0°F 29.50in - 79% 0.00in -9999 watts/m^2
07:44 36.3°F - 30.4°F 29.50in - 79% 0.00in -9999 watts/m^2
07:49 36.5°F - 30.6°F 29.51in - 79% 0.00in -9999 watts/m^2
07:54 36.5°F - 30.6°F 29.51in - 79% 0.00in -9999 watts/m^2
07:59 36.7°F - 30.7°F 29.50in - 79% 0.00in -9999 watts/m^2
08:04 37.0°F - 31.1°F 29.50in - 79% 0.00in -9999 watts/m^2
08:09 37.2°F - 31.3°F 29.50in - 79% 0.00in -9999 watts/m^2
08:14 37.6°F - 31.3°F 29.50in - 78% 0.00in -9999 watts/m^2
08:19 37.8°F - 31.5°F 29.51in - 78% 0.00in -9999 watts/m^2
08:24 37.8°F - 31.5°F 29.51in - 78% 0.00in -9999 watts/m^2
08:29 37.9°F - 31.6°F 29.51in - 78% 0.00in -9999 watts/m^2
08:34 38.1°F - 31.8°F 29.50in - 78% 0.00in -9999 watts/m^2
08:39 38.3°F - 32.0°F 29.50in - 78% 0.00in -9999 watts/m^2
08:44 38.8°F - 32.2°F 29.51in - 77% 0.00in -9999 watts/m^2
08:49 38.8°F - 32.2°F 29.51in - 77% 0.00in -9999 watts/m^2
08:54 39.0°F - 32.4°F 29.52in - 77% 0.00in -9999 watts/m^2
08:59 39.4°F - 32.4°F 29.52in - 76% 0.00in -9999 watts/m^2
09:04 39.6°F - 32.5°F 29.52in - 76% 0.00in -9999 watts/m^2
09:09 39.9°F - 32.9°F 29.52in - 76% 0.00in -9999 watts/m^2
09:14 40.5°F - 33.1°F 29.52in - 75% 0.00in -9999 watts/m^2
09:19 40.8°F - 32.9°F 29.53in - 73% 0.00in -9999 watts/m^2
09:24 41.0°F - 33.4°F 29.52in - 74% 0.00in -9999 watts/m^2
09:29 40.3°F - 32.7°F 29.52in - 74% 0.00in -9999 watts/m^2
09:34 40.6°F - 33.1°F 29.53in - 74% 0.00in -9999 watts/m^2
09:39 41.0°F - 33.1°F 29.53in - 73% 0.00in -9999 watts/m^2
09:44 41.0°F - 33.1°F 29.53in - 73% 0.00in -9999 watts/m^2
09:49 41.4°F - 33.4°F 29.53in - 73% 0.00in -9999 watts/m^2
09:54 42.6°F - 33.8°F 29.54in - 71% 0.00in -9999 watts/m^2
09:59 43.5°F - 34.3°F 29.53in - 70% 0.00in -9999 watts/m^2
10:04 43.9°F - 34.3°F 29.53in - 69% 0.00in -9999 watts/m^2
10:09 43.9°F - 34.3°F 29.53in - 69% 0.00in -9999 watts/m^2
10:14 43.9°F - 34.0°F 29.53in - 68% 0.00in -9999 watts/m^2
10:19 43.9°F - 34.3°F 29.53in - 69% 0.00in -9999 watts/m^2
10:24 44.4°F - 34.2°F 29.54in - 67% 0.00in -9999 watts/m^2
10:29 44.6°F - 34.3°F 29.53in - 67% 0.00in -9999 watts/m^2
10:34 45.0°F - 34.5°F 29.53in - 67% 0.00in -9999 watts/m^2
10:39 45.0°F - 34.0°F 29.54in - 65% 0.00in -9999 watts/m^2
10:44 44.8°F - 33.8°F 29.54in - 65% 0.00in -9999 watts/m^2
10:49 45.1°F - 34.2°F 29.53in - 65% 0.00in -9999 watts/m^2
10:54 45.1°F 43.0°F 34.5°F 29.54in 4.3mph 66% 0.00in -9999 watts/m^2
10:59 45.5°F 43.4°F 34.5°F 29.53in 4.3mph 65% 0.00in -9999 watts/m^2
11:04 45.7°F 43.7°F 34.2°F 29.54in 4.3mph 64% 0.00in -9999 watts/m^2
11:09 45.5°F 43.8°F 34.5°F 29.54in 4.3mph 65% 0.00in -9999 watts/m^2
11:14 45.9°F 44.3°F 34.9°F 29.53in 4.3mph 65% 0.00in -9999 watts/m^2
11:16 45.9°F 44.3°F 34.3°F 29.53in 4.3mph 64% 0.00in -9999 watts/m^2
11:21 46.0°F 44.4°F 34.2°F 29.53in 4.3mph 63% 0.00in -9999 watts/m^2
11:26 46.8°F - 34.0°F 29.53in 4.3mph 61% 0.00in -9999 watts/m^2
11:31 46.4°F - 34.5°F 29.53in 4.3mph 63% 0.00in -9999 watts/m^2
11:36 46.2°F - 34.0°F 29.53in 4.3mph 62% 0.00in -9999 watts/m^2
11:41 46.4°F - 34.5°F 29.53in 4.3mph 63% 0.00in -9999 watts/m^2
11:46 45.7°F - 34.2°F 29.53in 4.3mph 64% 0.00in -9999 watts/m^2
11:51 45.9°F 44.9°F 34.0°F 29.52in 4.3mph 63% 0.00in -9999 watts/m^2
11:56 46.2°F - 34.3°F 29.53in 4.3mph 63% 0.00in -9999 watts/m^2
12:01 46.4°F - 34.5°F 29.52in 4.3mph 63% 0.00in -9999 watts/m^2
12:06 46.8°F - 34.3°F 29.52in 3.8mph 62% 0.00in -9999 watts/m^2
12:11 46.8°F - 34.3°F 29.51in 3.8mph 62% 0.00in -9999 watts/m^2
12:16 46.9°F - 34.2°F 29.52in 3.1mph 61% 0.00in -9999 watts/m^2
12:21 47.3°F - 34.9°F 29.51in 3.1mph 62% 0.00in -9999 watts/m^2
12:26 47.1°F - 34.3°F 29.51in 3.1mph 61% 0.00in -9999 watts/m^2
12:31 47.1°F - 34.3°F 29.51in 3.1mph 61% 0.00in -9999 watts/m^2
12:36 46.9°F - 34.2°F 29.51in 3.1mph 61% 0.00in -9999 watts/m^2
12:41 47.1°F - 34.0°F 29.51in 3.8mph 60% 0.00in -9999 watts/m^2
12:46 47.1°F - 34.0°F 29.50in 3.8mph 60% 0.00in -9999 watts/m^2
12:51 47.1°F - 34.7°F 29.51in 3.8mph 62% 0.00in -9999 watts/m^2
12:52 47.1°F - 34.7°F 29.50in 3.8mph 62% 0.00in -9999 watts/m^2
12:57 47.1°F - 34.7°F 29.50in 3.8mph 62% 0.00in -9999 watts/m^2
13:03 47.1°F - 34.3°F 29.50in 3.8mph 61% 0.00in -9999 watts/m^2
13:08 46.8°F - 34.0°F 29.50in 3.8mph 61% 0.00in -9999 watts/m^2
13:13 46.9°F - 34.5°F 29.50in 3.8mph 62% 0.00in -9999 watts/m^2
13:18 47.3°F - 34.5°F 29.50in 3.8mph 61% 0.00in -9999 watts/m^2
13:23 47.7°F - 34.5°F 29.49in 3.8mph 60% 0.00in -9999 watts/m^2
13:28 48.0°F - 34.7°F 29.49in 3.8mph 60% 0.00in -9999 watts/m^2
13:33 48.2°F - 34.5°F 29.49in 3.8mph 59% 0.00in -9999 watts/m^2
13:38 48.4°F - 34.7°F 29.49in 3.8mph 59% 0.00in -9999 watts/m^2
13:43 48.2°F - 34.5°F 29.49in 3.8mph 59% 0.00in -9999 watts/m^2
13:48 48.4°F - 34.3°F 29.49in 3.8mph 58% 0.00in -9999 watts/m^2
13:53 48.2°F - 34.9°F 29.48in 3.8mph 60% 0.00in -9999 watts/m^2
13:58 48.2°F - 34.9°F 29.49in 1.8mph 60% 0.00in -9999 watts/m^2
14:03 48.6°F - 34.9°F 29.48in 1.8mph 59% 0.00in -9999 watts/m^2
14:08 48.7°F - 34.7°F 29.48in 1.8mph 58% 0.00in -9999 watts/m^2
14:13 48.7°F - 35.1°F 29.48in 1.8mph 59% 0.00in -9999 watts/m^2
14:18 48.7°F - 35.1°F 29.48in 1.8mph 59% 0.00in -9999 watts/m^2
14:23 48.6°F - 34.9°F 29.49in - 59% 0.00in -9999 watts/m^2
14:28 48.7°F - 34.7°F 29.48in - 58% 0.00in -9999 watts/m^2
14:33 48.6°F - 35.2°F 29.48in - 60% 0.00in -9999 watts/m^2
14:38 48.0°F - 35.2°F 29.49in - 61% 0.00in -9999 watts/m^2
14:43 47.7°F - 35.2°F 29.48in - 62% 0.00in -9999 watts/m^2
14:48 47.3°F - 34.9°F 29.48in - 62% 0.00in -9999 watts/m^2
14:53 47.7°F - 34.9°F 29.49in - 61% 0.00in -9999 watts/m^2
14:58 48.0°F - 35.2°F 29.49in - 61% 0.00in -9999 watts/m^2
15:03 48.2°F - 34.9°F 29.49in - 60% 0.00in -9999 watts/m^2
15:13 48.0°F - 34.7°F 29.49in - 60% 0.00in -9999 watts/m^2
15:18 48.0°F - 34.7°F 29.49in - 60% 0.00in -9999 watts/m^2
15:23 48.0°F - 35.2°F 29.49in - 61% 0.00in -9999 watts/m^2
15:28 48.4°F - 35.1°F 29.50in - 60% 0.00in -9999 watts/m^2
15:33 48.6°F - 35.2°F 29.49in - 60% 0.00in -9999 watts/m^2
15:38 48.7°F - 35.1°F 29.48in - 59% 0.00in -9999 watts/m^2
15:43 49.1°F - 34.9°F 29.49in - 58% 0.00in -9999 watts/m^2
15:48 48.6°F - 34.9°F 29.48in 1.8mph 59% 0.00in -9999 watts/m^2
15:53 48.2°F - 34.9°F 29.49in 1.8mph 60% 0.00in -9999 watts/m^2
16:03 48.2°F - 34.9°F 29.49in 1.8mph 60% 0.00in -9999 watts/m^2
16:08 48.0°F - 35.2°F 29.49in 1.8mph 61% 0.00in -9999 watts/m^2
16:13 47.8°F - 35.1°F 29.50in 1.8mph 61% 0.00in -9999 watts/m^2
16:18 47.7°F - 34.9°F 29.50in 1.8mph 61% 0.00in -9999 watts/m^2
16:23 47.7°F - 34.9°F 29.50in 1.8mph 61% 0.00in -9999 watts/m^2
16:33 47.8°F - 35.1°F 29.50in 1.8mph 61% 0.00in -9999 watts/m^2
16:38 47.8°F - 34.7°F 29.50in 1.8mph 60% 0.00in -9999 watts/m^2
16:39 47.8°F - 35.1°F 29.50in 1.8mph 61% 0.00in -9999 watts/m^2
16:44 47.8°F - 35.1°F 29.50in 1.8mph 61% 0.00in -9999 watts/m^2
16:49 47.7°F - 35.6°F 29.50in 1.8mph 63% 0.00in -9999 watts/m^2
16:54 47.3°F - 35.4°F 29.50in 1.8mph 63% 0.00in -9999 watts/m^2
17:09 43.5°F - 33.6°F 29.51in 1.3mph 68% 0.00in -9999 watts/m^2
17:14 43.3°F - 33.8°F 29.51in 1.3mph 69% 0.00in -9999 watts/m^2
17:19 43.3°F - 33.8°F 29.52in 1.3mph 69% 0.00in -9999 watts/m^2
17:29 44.6°F - 34.7°F 29.52in 1.3mph 68% 0.00in -9999 watts/m^2
17:34 44.8°F - 34.5°F 29.52in 1.3mph 67% 0.00in -9999 watts/m^2
17:44 44.8°F - 34.5°F 29.51in 1.3mph 67% 0.00in -9999 watts/m^2
17:54 43.2°F - 34.0°F 29.52in 1.3mph 70% 0.00in -9999 watts/m^2
17:59 43.2°F - 34.0°F 29.51in 1.3mph 70% 0.00in -9999 watts/m^2
18:09 42.6°F - 33.8°F 29.51in 0.7mph 71% 0.00in -9999 watts/m^2
18:14 41.9°F - 33.4°F 29.52in 0.7mph 72% 0.00in -9999 watts/m^2
18:19 42.4°F - 34.7°F 29.51in 1.8mph 74% 0.00in -9999 watts/m^2
18:29 41.9°F - 34.0°F 29.51in 1.8mph 73% 0.00in -9999 watts/m^2
18:39 42.6°F - 34.5°F 29.51in 1.8mph 73% 0.00in -9999 watts/m^2
18:44 43.2°F - 34.7°F 29.51in 1.8mph 72% 0.00in -9999 watts/m^2
18:49 43.5°F - 35.1°F 29.51in 1.8mph 72% 0.00in -9999 watts/m^2
18:54 43.3°F - 34.2°F 29.53in 1.8mph 70% 0.00in -9999 watts/m^2
18:59 42.8°F - 34.3°F 29.53in 1.8mph 72% 0.00in -9999 watts/m^2
19:04 43.2°F - 34.7°F 29.52in 1.8mph 72% 0.00in -9999 watts/m^2
19:09 43.5°F - 35.1°F 29.52in 1.8mph 72% 0.00in -9999 watts/m^2
19:14 43.9°F - 35.4°F 29.52in 1.8mph 72% 0.00in -9999 watts/m^2
19:19 44.4°F - 36.0°F 29.52in 0.0mph 72% 0.00in -9999 watts/m^2
19:24 44.6°F - 36.1°F 29.52in 0.0mph 72% 0.00in -9999 watts/m^2
19:29 44.6°F - 36.1°F 29.53in 0.0mph 72% 0.00in -9999 watts/m^2
19:34 45.0°F - 36.5°F 29.52in 0.0mph 72% 0.00in -9999 watts/m^2
19:39 44.6°F - 36.1°F 29.53in 0.0mph 72% 0.00in -9999 watts/m^2
19:44 44.6°F - 36.1°F 29.53in 0.0mph 72% 0.00in -9999 watts/m^2
19:49 44.2°F - 36.1°F 29.53in 1.3mph 73% 0.00in -9999 watts/m^2
19:54 44.2°F - 36.1°F 29.54in 1.3mph 73% 0.00in -9999 watts/m^2
19:59 44.2°F - 35.8°F 29.53in 1.3mph 72% 0.00in -9999 watts/m^2
20:04 44.2°F - 35.8°F 29.53in 1.3mph 72% 0.00in -9999 watts/m^2
20:09 44.2°F - 35.8°F 29.54in 1.3mph 72% 0.00in -9999 watts/m^2
20:14 44.2°F - 35.8°F 29.53in 1.3mph 72% 0.00in -9999 watts/m^2
20:19 44.2°F - 35.8°F 29.53in 1.3mph 72% 0.00in -9999 watts/m^2
20:24 43.2°F - 34.7°F 29.53in 1.3mph 72% 0.00in -9999 watts/m^2
20:29 43.0°F - 34.9°F 29.54in 1.3mph 73% 0.00in -9999 watts/m^2
20:34 43.0°F - 34.9°F 29.53in 1.3mph 73% 0.00in -9999 watts/m^2
20:39 42.8°F - 34.7°F 29.54in 1.3mph 73% 0.00in -9999 watts/m^2
20:44 42.6°F - 34.9°F 29.53in 1.3mph 74% 0.00in -9999 watts/m^2
20:49 43.2°F - 35.1°F 29.53in - 73% 0.00in -9999 watts/m^2
20:54 43.0°F - 34.9°F 29.53in - 73% 0.00in -9999 watts/m^2
20:59 43.0°F - 34.9°F 29.54in - 73% 0.00in -9999 watts/m^2
21:04 43.2°F - 35.1°F 29.53in - 73% 0.00in -9999 watts/m^2
21:09 43.2°F - 35.1°F 29.53in - 73% 0.00in -9999 watts/m^2
21:14 43.2°F - 35.1°F 29.53in - 73% 0.00in -9999 watts/m^2
21:19 43.9°F - 35.4°F 29.53in - 72% 0.00in -9999 watts/m^2
21:24 43.9°F - 35.4°F 29.53in - 72% 0.00in -9999 watts/m^2
21:29 44.1°F - 35.6°F 29.52in - 72% 0.00in -9999 watts/m^2
21:34 43.9°F - 35.4°F 29.53in - 72% 0.00in -9999 watts/m^2
21:39 43.5°F - 35.1°F 29.53in - 72% 0.00in -9999 watts/m^2
21:44 43.2°F - 35.1°F 29.52in - 73% 0.00in -9999 watts/m^2
21:54 43.3°F - 35.2°F 29.52in - 73% 0.00in -9999 watts/m^2
21:59 43.5°F - 35.4°F 29.52in - 73% 0.00in -9999 watts/m^2
22:04 43.5°F - 35.4°F 29.53in - 73% 0.00in -9999 watts/m^2
22:15 43.5°F - 35.8°F 29.52in - 74% 0.00in -9999 watts/m^2
22:20 43.3°F - 35.6°F 29.52in - 74% 0.00in -9999 watts/m^2
22:25 43.9°F - 36.5°F 29.52in - 75% 0.00in -9999 watts/m^2
22:30 44.1°F - 36.3°F 29.52in - 74% 0.00in -9999 watts/m^2
22:35 43.0°F - 35.6°F 29.52in - 75% 0.00in -9999 watts/m^2
22:40 42.8°F - 35.8°F 29.52in - 76% 0.00in -9999 watts/m^2
22:45 43.2°F - 36.1°F 29.52in - 76% 0.00in -9999 watts/m^2
22:50 43.3°F - 36.3°F 29.52in - 76% 0.00in -9999 watts/m^2
23:00 43.3°F - 36.0°F 29.52in - 75% 0.00in -9999 watts/m^2
Comma Delimited File
Powered by Weather Underground, Inc.